Time;durP1;ratioP1;P1;durP2;ratioP2;P2;SDS_P1;SDS_P2;PMS_P1;PMS_P2;Temp;Humidity;BMP_temperature;BMP_pressure;BME280_temperature;BME280_humidity;BME280_pressure;Samples;Min_cycle;Max_cycle;Signal;HPM_P1;HPM_P2
2023/07/25 00:00:28;;;;;;;5.80;3.35;;;15.20;99.90;;;;;;5019828;28;20109;-68
2023/07/25 00:02:53;;;;;;;5.35;3.17;;;15.20;99.90;;;;;;5017244;28;20030;-68
2023/07/25 00:05:19;;;;;;;7.90;3.90;;;15.10;99.90;;;;;;5021864;28;20029;-69
2023/07/25 00:07:45;;;;;;;6.45;3.75;;;15.10;99.90;;;;;;5023017;28;20029;-68
2023/07/25 00:10:10;;;;;;;8.10;4.03;;;15.10;99.90;;;;;;5020643;28;20029;-69
2023/07/25 00:12:37;;;;;;;8.10;4.20;;;15.00;99.90;;;;;;4996466;28;20025;-64
2023/07/25 00:15:03;;;;;;;8.52;4.10;;;15.00;99.90;;;;;;5022504;28;20064;-69
2023/07/25 00:17:29;;;;;;;6.35;3.58;;;15.00;99.90;;;;;;5017857;28;20041;-69
2023/07/25 00:19:54;;;;;;;7.47;3.60;;;15.00;99.90;;;;;;5017053;28;20490;-68
2023/07/25 00:22:20;;;;;;;6.72;3.53;;;15.00;99.90;;;;;;5029930;28;20064;-69
2023/07/25 00:24:46;;;;;;;9.27;3.75;;;15.00;99.90;;;;;;5011551;28;20535;-69
2023/07/25 00:27:11;;;;;;;6.15;3.53;;;14.90;99.90;;;;;;5022491;28;20037;-69
2023/07/25 00:29:37;;;;;;;5.32;3.28;;;14.90;99.90;;;;;;5011774;28;20033;-65
2023/07/25 00:32:03;;;;;;;7.93;3.42;;;14.90;99.90;;;;;;5023330;28;20032;-69
2023/07/25 00:34:28;;;;;;;7.68;3.38;;;14.80;99.90;;;;;;5021606;28;20033;-69
2023/07/25 00:36:54;;;;;;;8.77;3.63;;;14.80;99.90;;;;;;5028558;28;20044;-69
2023/07/25 00:39:20;;;;;;;9.63;3.45;;;14.80;99.90;;;;;;5021509;28;20425;-67
2023/07/25 00:41:45;;;;;;;5.78;3.08;;;14.90;99.90;;;;;;5020018;28;20029;-68
2023/07/25 00:44:11;;;;;;;6.00;3.42;;;14.80;99.90;;;;;;5020091;28;20022;-69
2023/07/25 00:46:37;;;;;;;6.07;3.10;;;14.70;99.90;;;;;;5026378;28;20874;-64
2023/07/25 00:49:04;;;;;;;5.82;3.20;;;14.70;99.90;;;;;;5022680;28;20120;-68
2023/07/25 00:51:31;;;;;;;6.70;3.13;;;14.70;99.90;;;;;;5017706;28;20041;-68
2023/07/25 00:53:57;;;;;;;4.88;3.08;;;14.60;99.90;;;;;;5014046;28;20030;-67
2023/07/25 00:56:23;;;;;;;6.05;3.28;;;14.60;99.90;;;;;;5010237;28;20064;-69
2023/07/25 00:58:49;;;;;;;6.53;2.97;;;14.50;99.90;;;;;;5015802;28;20033;-69
2023/07/25 01:01:15;;;;;;;5.82;3.20;;;14.50;99.90;;;;;;5022374;28;20036;-68
2023/07/25 01:03:41;;;;;;;8.20;3.40;;;14.50;99.90;;;;;;5015521;28;20080;-65
2023/07/25 01:06:12;;;;;;;5.30;2.53;;;14.40;99.90;;;;;;5012339;28;20105;-67
2023/07/25 01:08:55;;;;;;;8.77;3.08;;;14.50;99.90;;;;;;5012336;28;20052;-64
2023/07/25 01:11:22;;;;;;;6.05;3.60;;;14.50;99.90;;;;;;5013883;28;20474;-69
2023/07/25 01:13:49;;;;;;;7.55;3.30;;;14.50;99.90;;;;;;5015275;28;20049;-68
2023/07/25 01:16:24;;;;;;;5.10;3.08;;;14.50;99.90;;;;;;5020173;28;20673;-68
2023/07/25 01:18:51;;;;;;;6.65;3.50;;;14.50;99.90;;;;;;5009396;28;20096;-68
2023/07/25 01:21:17;;;;;;;9.40;3.47;;;14.60;99.90;;;;;;5009980;28;20478;-69
2023/07/25 01:23:43;;;;;;;6.68;3.33;;;14.60;99.90;;;;;;5016758;28;20044;-64
2023/07/25 01:26:08;;;;;;;5.25;3.03;;;14.60;99.90;;;;;;5010833;28;20383;-68
2023/07/25 01:28:34;;;;;;;8.50;3.00;;;14.60;99.90;;;;;;5017068;28;20036;-69
2023/07/25 01:30:59;;;;;;;5.47;3.40;;;14.50;99.90;;;;;;5028175;28;20478;-68
2023/07/25 01:33:25;;;;;;;6.88;2.95;;;14.50;99.90;;;;;;5018982;28;20119;-68
2023/07/25 01:35:51;;;;;;;7.53;3.15;;;14.30;99.90;;;;;;5010226;28;20026;-69
2023/07/25 01:38:16;;;;;;;4.65;2.90;;;14.30;99.90;;;;;;5022614;28;20042;-69
2023/07/25 01:40:42;;;;;;;5.38;3.17;;;14.30;99.90;;;;;;5017380;28;20091;-64
2023/07/25 01:43:09;;;;;;;5.40;3.05;;;14.20;99.90;;;;;;5011518;28;20057;-69
2023/07/25 01:45:35;;;;;;;5.40;3.15;;;14.20;99.90;;;;;;5018766;28;20037;-69
2023/07/25 01:48:01;;;;;;;5.47;3.13;;;14.20;99.90;;;;;;5019191;28;20046;-68
2023/07/25 01:50:28;;;;;;;7.65;3.35;;;14.20;99.90;;;;;;5016829;28;20438;-68
2023/07/25 01:52:54;;;;;;;6.15;3.42;;;14.30;99.90;;;;;;5023589;28;20099;-69
2023/07/25 01:55:20;;;;;;;6.75;3.08;;;14.30;99.90;;;;;;5014941;28;20060;-69
2023/07/25 01:57:45;;;;;;;7.78;3.00;;;14.30;99.90;;;;;;5018611;28;20478;-67
2023/07/25 02:00:11;;;;;;;6.63;3.10;;;14.20;99.90;;;;;;5022364;28;20457;-68
2023/07/25 02:02:37;;;;;;;6.88;3.05;;;14.10;99.90;;;;;;5025013;28;20029;-68
2023/07/25 02:05:03;;;;;;;7.13;3.13;;;14.10;99.90;;;;;;5021485;28;20105;-68
2023/07/25 02:07:28;;;;;;;6.53;3.05;;;14.10;99.90;;;;;;5015302;28;20044;-69
2023/07/25 02:09:54;;;;;;;6.88;3.13;;;14.10;99.90;;;;;;5015097;28;20450;-69
2023/07/25 02:12:20;;;;;;;5.82;3.30;;;14.10;99.90;;;;;;5013339;28;20036;-68
2023/07/25 02:14:45;;;;;;;6.90;2.90;;;14.10;99.90;;;;;;5023224;28;20025;-64
2023/07/25 02:17:11;;;;;;;5.35;2.85;;;14.10;99.90;;;;;;5011007;28;20042;-69
2023/07/25 02:19:38;;;;;;;5.35;2.92;;;14.20;99.90;;;;;;5019719;28;20056;-69
2023/07/25 02:22:04;;;;;;;6.32;2.83;;;14.20;99.90;;;;;;5016745;28;20093;-67
2023/07/25 02:24:30;;;;;;;6.07;3.03;;;14.10;99.90;;;;;;5017065;28;20037;-70
2023/07/25 02:26:56;;;;;;;7.32;2.92;;;14.10;99.90;;;;;;5016916;28;20030;-68
2023/07/25 02:29:23;;;;;;;6.10;3.08;;;14.00;99.90;;;;;;5010700;28;20033;-69
2023/07/25 02:31:52;;;;;;;5.68;3.13;;;14.10;99.90;;;;;;5016109;28;20037;-68
2023/07/25 02:34:18;;;;;;;8.13;3.03;;;14.00;99.90;;;;;;4993597;28;20508;-68
2023/07/25 02:36:43;;;;;;;5.10;2.97;;;14.10;99.90;;;;;;5022851;28;20037;-66
2023/07/25 02:39:09;;;;;;;6.68;3.22;;;14.10;99.90;;;;;;5017509;28;20049;-69
2023/07/25 02:41:37;;;;;;;5.75;2.97;;;14.10;99.90;;;;;;5024561;28;20064;-68
2023/07/25 02:44:04;;;;;;;4.75;2.72;;;14.00;99.90;;;;;;5024483;28;20716;-69
2023/07/25 02:46:30;;;;;;;6.68;3.42;;;14.10;99.90;;;;;;5027570;28;20621;-69
2023/07/25 02:48:55;;;;;;;6.38;3.25;;;14.00;99.90;;;;;;5022438;28;20049;-68
2023/07/25 02:51:21;;;;;;;6.15;3.20;;;14.00;99.90;;;;;;5026797;28;20041;-69
2023/07/25 02:53:46;;;;;;;6.65;2.97;;;13.80;99.90;;;;;;5019467;28;20061;-65
2023/07/25 02:56:12;;;;;;;7.68;2.90;;;13.90;99.90;;;;;;5023650;28;20556;-70
2023/07/25 02:58:38;;;;;;;6.28;3.15;;;13.80;99.90;;;;;;5008568;28;20388;-70
2023/07/25 03:01:03;;;;;;;6.60;3.30;;;13.80;99.90;;;;;;5019665;28;20030;-69
2023/07/25 03:03:29;;;;;;;5.43;2.78;;;13.90;99.90;;;;;;5023567;28;20763;-69
2023/07/25 03:05:55;;;;;;;4.65;3.13;;;13.80;99.90;;;;;;5019241;28;20033;-68
2023/07/25 03:08:20;;;;;;;7.68;2.83;;;13.80;99.90;;;;;;5014375;28;20359;-68
2023/07/25 03:10:46;;;;;;;5.95;3.03;;;13.80;99.90;;;;;;5020983;28;20030;-66
2023/07/25 03:13:12;;;;;;;7.65;3.22;;;13.80;99.90;;;;;;5007759;28;20093;-69
2023/07/25 03:15:38;;;;;;;5.85;2.92;;;13.80;99.90;;;;;;5012345;28;20065;-69
2023/07/25 03:18:04;;;;;;;5.97;3.00;;;13.80;99.90;;;;;;5010207;28;20180;-69
2023/07/25 03:20:29;;;;;;;7.07;3.67;;;13.70;99.90;;;;;;5012267;28;20135;-69
2023/07/25 03:22:55;;;;;;;5.65;2.95;;;13.70;99.90;;;;;;5019160;28;20033;-68
2023/07/25 03:25:21;;;;;;;4.78;3.05;;;13.70;99.90;;;;;;5022546;28;20105;-69
2023/07/25 03:27:46;;;;;;;5.13;3.25;;;13.80;99.90;;;;;;5017383;28;20462;-65
2023/07/25 03:30:12;;;;;;;7.90;3.72;;;13.70;99.90;;;;;;5020550;28;20037;-69
2023/07/25 03:32:38;;;;;;;5.72;2.88;;;13.60;99.90;;;;;;5012037;28;20390;-69
2023/07/25 03:35:04;;;;;;;7.25;3.45;;;13.60;99.90;;;;;;5017016;28;20037;-68
2023/07/25 03:37:30;;;;;;;7.13;3.20;;;13.60;99.90;;;;;;5020079;28;20033;-68
2023/07/25 03:39:55;;;;;;;9.48;3.15;;;13.70;99.90;;;;;;5011049;28;20458;-69
2023/07/25 03:42:21;;;;;;;8.85;3.65;;;13.70;99.90;;;;;;5011808;28;20084;-69
2023/07/25 03:44:47;;;;;;;10.20;3.55;;;13.70;99.90;;;;;;5019082;28;20040;-65
2023/07/25 03:47:12;;;;;;;6.47;3.35;;;13.80;99.90;;;;;;5011801;28;20818;-69
2023/07/25 03:49:38;;;;;;;9.35;3.00;;;13.80;99.90;;;;;;4993963;28;20116;-69
2023/07/25 03:52:04;;;;;;;5.90;2.78;;;13.60;99.90;;;;;;5013666;28;20096;-69
2023/07/25 03:54:30;;;;;;;7.05;3.17;;;13.50;99.90;;;;;;5017653;28;20840;-69
2023/07/25 03:56:55;;;;;;;6.45;2.80;;;13.50;99.90;;;;;;5023738;28;20034;-69
2023/07/25 03:59:21;;;;;;;7.60;3.05;;;13.60;99.90;;;;;;5024654;28;20467;-68
2023/07/25 04:01:47;;;;;;;7.45;3.30;;;13.70;99.90;;;;;;5028319;28;20034;-69
2023/07/25 04:04:13;;;;;;;6.28;2.90;;;13.70;99.90;;;;;;5017021;28;20081;-69
2023/07/25 04:06:39;;;;;;;7.28;3.08;;;13.70;99.90;;;;;;5024449;28;20033;-69
2023/07/25 04:09:04;;;;;;;8.00;3.28;;;13.70;99.90;;;;;;5022204;28;20117;-69
2023/07/25 04:11:30;;;;;;;5.28;3.10;;;13.50;99.90;;;;;;5019982;28;20394;-68
2023/07/25 04:13:56;;;;;;;8.25;3.00;;;13.50;99.90;;;;;;5023899;28;20108;-69
2023/07/25 04:16:22;;;;;;;4.90;2.53;;;13.50;99.90;;;;;;5013283;28;20041;-69
2023/07/25 04:18:48;;;;;;;4.97;3.38;;;13.50;99.90;;;;;;5025595;28;20080;-69
2023/07/25 04:21:13;;;;;;;5.97;3.30;;;13.60;99.90;;;;;;4993688;28;20441;-69
2023/07/25 04:23:39;;;;;;;5.80;2.97;;;13.70;99.90;;;;;;5017493;28;20026;-69
2023/07/25 04:26:05;;;;;;;6.55;3.30;;;13.80;99.90;;;;;;5022537;28;20030;-68
2023/07/25 04:28:30;;;;;;;6.95;3.63;;;13.90;99.90;;;;;;5017152;28;20046;-68
2023/07/25 04:30:56;;;;;;;5.95;3.15;;;13.90;99.90;;;;;;5023126;28;20026;-69
2023/07/25 04:33:21;;;;;;;5.80;3.13;;;13.90;99.90;;;;;;5022640;28;20250;-69
2023/07/25 04:35:47;;;;;;;5.07;3.08;;;13.80;99.90;;;;;;5016422;28;20025;-71
2023/07/25 04:38:16;;;;;;;6.75;3.30;;;13.80;99.90;;;;;;5016890;28;20048;-70
2023/07/25 04:40:45;;;;;;;6.07;3.40;;;13.90;99.90;;;;;;5027105;28;20421;-72
2023/07/25 04:43:10;;;;;;;8.23;3.38;;;13.90;99.90;;;;;;5028599;28;20036;-69
2023/07/25 04:45:37;;;;;;;9.05;3.10;;;13.90;99.90;;;;;;5027023;28;20033;-70
2023/07/25 04:48:03;;;;;;;4.80;2.67;;;13.90;99.90;;;;;;5026252;28;20099;-70
2023/07/25 04:50:29;;;;;;;4.25;2.78;;;13.90;99.90;;;;;;5019377;28;20037;-68
2023/07/25 04:52:54;;;;;;;5.60;2.85;;;14.00;99.90;;;;;;5025471;28;20041;-69
2023/07/25 04:55:20;;;;;;;10.82;3.42;;;13.90;99.90;;;;;;5024380;28;20417;-68
2023/07/25 04:57:46;;;;;;;9.63;3.67;;;13.90;99.90;;;;;;5015699;28;20126;-68
2023/07/25 05:00:12;;;;;;;8.40;4.35;;;13.50;99.90;;;;;;5017577;28;20121;-70
2023/07/25 05:02:37;;;;;;;7.18;3.75;;;13.60;99.90;;;;;;5021079;28;20041;-67
2023/07/25 05:05:03;;;;;;;7.88;4.10;;;13.80;99.90;;;;;;5021265;28;20034;-70
2023/07/25 05:07:29;;;;;;;8.20;4.20;;;13.90;99.90;;;;;;5016200;28;20038;-71
2023/07/25 05:09:55;;;;;;;10.00;4.60;;;14.10;99.90;;;;;;5022961;28;20033;-66
2023/07/25 05:12:20;;;;;;;13.23;4.60;;;14.10;99.90;;;;;;5020795;28;20462;-70
2023/07/25 05:14:46;;;;;;;8.45;4.10;;;14.30;99.90;;;;;;5017088;28;20029;-70
2023/07/25 05:17:11;;;;;;;10.70;4.50;;;14.40;99.90;;;;;;5016168;28;20116;-71
2023/07/25 05:19:37;;;;;;;11.35;4.15;;;14.40;99.90;;;;;;5011261;28;20041;-69
2023/07/25 05:22:03;;;;;;;13.95;5.00;;;14.60;99.90;;;;;;5013332;28;20033;-72
2023/07/25 05:24:28;;;;;;;8.07;4.10;;;14.70;99.90;;;;;;5015798;28;20465;-72
2023/07/25 05:26:54;;;;;;;7.72;3.92;;;14.60;99.90;;;;;;5009800;28;20029;-65
2023/07/25 05:29:20;;;;;;;8.10;4.05;;;14.40;99.90;;;;;;5016183;28;20025;-69
2023/07/25 05:31:45;;;;;;;11.98;4.35;;;14.40;99.90;;;;;;5023555;28;20517;-69
2023/07/25 05:34:11;;;;;;;8.55;4.22;;;14.50;99.90;;;;;;5023529;28;20025;-71
2023/07/25 05:36:37;;;;;;;13.52;4.97;;;14.60;99.90;;;;;;5019576;28;20030;-71
2023/07/25 05:39:02;;;;;;;7.72;4.10;;;14.60;99.90;;;;;;5022510;28;20123;-70
2023/07/25 05:41:28;;;;;;;7.18;4.15;;;14.70;99.90;;;;;;5018948;28;20117;-69
2023/07/25 05:43:54;;;;;;;8.63;4.10;;;14.70;99.90;;;;;;5018113;28;20366;-65
2023/07/25 05:46:19;;;;;;;7.78;3.88;;;14.80;99.90;;;;;;5024350;28;20582;-70
2023/07/25 05:48:45;;;;;;;11.38;4.03;;;14.80;99.90;;;;;;5026454;28;20047;-70
2023/07/25 05:51:11;;;;;;;7.70;4.30;;;15.00;99.90;;;;;;5009281;28;20466;-69
2023/07/25 05:53:36;;;;;;;7.95;4.22;;;15.00;99.90;;;;;;5023123;28;20041;-70
2023/07/25 05:56:02;;;;;;;8.52;4.28;;;15.20;99.90;;;;;;5019547;28;20043;-70
2023/07/25 05:58:28;;;;;;;9.38;4.18;;;15.20;99.90;;;;;;5023904;28;20042;-70
2023/07/25 06:00:54;;;;;;;5.72;3.78;;;15.40;99.90;;;;;;5023400;28;20037;-65
2023/07/25 06:03:20;;;;;;;6.05;3.83;;;15.40;99.90;;;;;;5021275;28;20033;-71
2023/07/25 06:05:45;;;;;;;9.00;4.40;;;15.50;99.90;;;;;;5020861;28;21471;-69
2023/07/25 06:08:11;;;;;;;7.70;4.10;;;15.60;99.90;;;;;;5018984;28;20382;-70
2023/07/25 06:10:37;;;;;;;15.25;4.30;;;15.60;99.90;;;;;;5020232;28;20036;-70
2023/07/25 06:13:04;;;;;;;9.77;4.55;;;15.70;99.90;;;;;;5008314;28;20523;-70
2023/07/25 06:15:33;;;;;;;8.50;4.30;;;15.70;99.90;;;;;;5014300;28;20041;-69
2023/07/25 06:18:05;;;;;;;7.43;4.25;;;15.70;99.90;;;;;;5017296;28;20045;-70
2023/07/25 06:20:32;;;;;;;10.88;4.70;;;15.70;99.90;;;;;;5013858;28;20121;-70
2023/07/25 06:22:59;;;;;;;8.05;4.63;;;15.80;99.90;;;;;;5015786;28;20555;-66
2023/07/25 06:25:24;;;;;;;9.30;4.50;;;15.70;99.90;;;;;;5009007;28;20478;-71
2023/07/25 06:27:50;;;;;;;10.20;4.10;;;15.80;99.90;;;;;;5018851;28;20064;-69
2023/07/25 06:30:15;;;;;;;7.53;4.50;;;15.70;99.90;;;;;;5015563;28;20061;-70
2023/07/25 06:32:41;;;;;;;8.35;4.63;;;15.80;99.90;;;;;;5014322;28;20825;-70
2023/07/25 06:35:07;;;;;;;8.40;4.60;;;15.80;99.90;;;;;;5007972;28;20032;-70
2023/07/25 06:37:34;;;;;;;8.90;3.97;;;15.80;99.90;;;;;;5003022;28;20045;-70
2023/07/25 06:40:00;;;;;;;11.30;4.80;;;15.90;99.90;;;;;;5012375;28;20478;-66
2023/07/25 06:42:30;;;;;;;9.45;5.13;;;15.80;99.90;;;;;;5014721;28;20053;-71
2023/07/25 06:44:56;;;;;;;14.93;5.45;;;15.80;99.90;;;;;;5012671;28;20038;-66
2023/07/25 06:47:22;;;;;;;10.43;5.15;;;15.80;99.90;;;;;;5017093;28;20022;-71
2023/07/25 06:49:47;;;;;;;8.57;4.80;;;15.90;99.90;;;;;;5008299;28;20034;-70
2023/07/25 06:52:13;;;;;;;9.52;4.90;;;16.00;99.90;;;;;;5021823;28;20071;-69
2023/07/25 06:54:40;;;;;;;9.98;5.07;;;16.20;99.90;;;;;;5022169;28;20080;-70
2023/07/25 06:57:06;;;;;;;15.60;5.53;;;16.30;99.90;;;;;;5020656;28;20378;-70
2023/07/25 06:59:31;;;;;;;10.73;5.22;;;16.40;99.90;;;;;;5030326;28;20033;-70
2023/07/25 07:01:57;;;;;;;9.98;5.20;;;16.50;99.90;;;;;;5027148;28;20088;-65
2023/07/25 07:04:23;;;;;;;10.07;4.80;;;16.70;99.90;;;;;;5019596;28;20073;-70
2023/07/25 07:06:48;;;;;;;10.60;4.55;;;16.80;99.90;;;;;;5017019;28;20038;-69
2023/07/25 07:09:14;;;;;;;6.30;3.60;;;16.80;99.90;;;;;;5011682;28;20088;-71
2023/07/25 07:11:40;;;;;;;8.10;4.45;;;16.80;99.90;;;;;;5012898;28;20034;-70
2023/07/25 07:14:06;;;;;;;7.22;4.43;;;16.80;99.90;;;;;;5020972;28;20032;-70
2023/07/25 07:16:32;;;;;;;9.73;4.93;;;16.90;99.90;;;;;;5017052;28;20467;-69
2023/07/25 07:18:58;;;;;;;6.60;4.38;;;16.90;99.90;;;;;;5016194;28;20053;-65
2023/07/25 07:21:23;;;;;;;6.07;3.78;;;16.90;99.90;;;;;;5026077;28;20120;-70
2023/07/25 07:23:49;;;;;;;6.65;3.63;;;16.90;99.90;;;;;;5013704;28;20022;-70
2023/07/25 07:26:14;;;;;;;8.40;4.85;;;16.90;99.90;;;;;;5016461;28;20548;-70
2023/07/25 07:28:41;;;;;;;7.72;4.47;;;17.00;99.90;;;;;;5025071;28;20034;-69
2023/07/25 07:31:09;;;;;;;6.65;3.90;;;16.90;99.90;;;;;;5022835;28;20164;-70
2023/07/25 07:33:35;;;;;;;6.38;3.67;;;17.00;99.90;;;;;;5026717;28;20029;-69
2023/07/25 07:36:01;;;;;;;5.55;3.35;;;16.90;99.90;;;;;;5018012;28;20072;-66
2023/07/25 07:38:27;;;;;;;7.28;4.03;;;16.90;99.90;;;;;;5017720;28;20046;-70
2023/07/25 07:40:52;;;;;;;8.85;3.80;;;16.90;99.90;;;;;;5022565;28;20588;-70
2023/07/25 07:43:18;;;;;;;7.57;3.70;;;17.00;99.90;;;;;;5012735;28;20037;-71
2023/07/25 07:45:44;;;;;;;8.38;3.20;;;17.00;99.90;;;;;;5011594;28;20413;-71
2023/07/25 07:48:10;;;;;;;5.57;2.75;;;17.10;99.90;;;;;;5025501;28;20026;-69
2023/07/25 07:50:35;;;;;;;5.88;3.00;;;17.00;99.90;;;;;;5012333;28;20034;-70
2023/07/25 07:53:01;;;;;;;4.38;2.63;;;17.00;99.90;;;;;;5016362;28;20032;-66
2023/07/25 07:55:27;;;;;;;5.57;3.15;;;17.00;99.90;;;;;;5018798;28;20038;-70
2023/07/25 07:57:53;;;;;;;6.22;3.10;;;17.10;99.90;;;;;;5020999;28;20065;-71
2023/07/25 08:00:19;;;;;;;4.07;2.50;;;17.10;99.90;;;;;;5026166;28;20036;-70
2023/07/25 08:02:44;;;;;;;7.45;2.63;;;17.00;99.90;;;;;;5020087;28;20033;-72
2023/07/25 08:05:11;;;;;;;5.47;2.40;;;17.00;99.90;;;;;;5024629;28;20104;-70
2023/07/25 08:07:38;;;;;;;5.38;2.15;;;16.80;99.90;;;;;;5025752;28;20048;-69
2023/07/25 08:10:04;;;;;;;4.00;2.10;;;16.70;99.90;;;;;;5027069;28;20041;-65
2023/07/25 08:12:30;;;;;;;4.35;2.28;;;16.50;99.90;;;;;;5021005;28;20034;-71
2023/07/25 08:14:55;;;;;;;4.03;2.25;;;16.40;99.90;;;;;;5015638;28;20032;-69
2023/07/25 08:17:21;;;;;;;6.53;2.38;;;16.30;99.90;;;;;;5016911;28;20077;-70
2023/07/25 08:19:47;;;;;;;6.93;2.60;;;16.20;99.90;;;;;;5016656;28;20042;-70
2023/07/25 08:22:12;;;;;;;8.13;2.90;;;16.20;99.90;;;;;;5016822;28;20474;-71
2023/07/25 08:24:39;;;;;;;5.38;2.13;;;16.00;99.90;;;;;;5020359;28;20041;-71
2023/07/25 08:27:05;;;;;;;6.13;2.63;;;16.00;99.90;;;;;;5011617;28;20108;-65
2023/07/25 08:29:31;;;;;;;5.78;2.70;;;15.90;99.90;;;;;;5025891;28;20033;-71
2023/07/25 08:31:57;;;;;;;5.68;2.92;;;15.90;99.90;;;;;;5020401;28;20029;-69
2023/07/25 08:34:23;;;;;;;6.95;2.78;;;15.90;99.90;;;;;;5010303;28;20116;-70
2023/07/25 08:36:48;;;;;;;4.97;2.60;;;15.90;99.90;;;;;;5020816;28;20095;-71
2023/07/25 08:39:14;;;;;;;5.70;2.90;;;16.00;99.90;;;;;;5017002;28;20556;-70
2023/07/25 08:41:43;;;;;;;8.43;2.80;;;16.10;99.90;;;;;;5027514;28;20041;-69
2023/07/25 08:44:11;;;;;;;7.07;2.70;;;16.10;99.90;;;;;;5023641;28;20104;-71
2023/07/25 08:46:40;;;;;;;6.45;2.50;;;16.10;99.90;;;;;;5012584;28;20064;-70
2023/07/25 08:49:13;;;;;;;5.47;2.97;;;16.10;99.90;;;;;;5002294;28;20033;-65
2023/07/25 08:51:42;;;;;;;5.57;2.45;;;16.20;99.90;;;;;;5017770;28;20416;-71
2023/07/25 08:54:22;;;;;;;5.03;2.50;;;16.20;99.90;;;;;;5009696;28;20470;-71
2023/07/25 08:56:48;;;;;;;4.88;2.22;;;16.30;99.90;;;;;;5019926;28;20113;-70
2023/07/25 08:59:14;;;;;;;4.18;2.53;;;16.40;99.90;;;;;;5024133;28;20041;-70
2023/07/25 09:01:40;;;;;;;5.18;2.63;;;16.50;99.90;;;;;;5027046;28;20037;-70
2023/07/25 09:04:06;;;;;;;4.13;2.40;;;16.70;99.90;;;;;;5021399;28;20435;-66
2023/07/25 09:06:33;;;;;;;4.28;2.53;;;16.80;99.90;;;;;;5023982;28;20044;-70
2023/07/25 09:08:58;;;;;;;4.88;2.10;;;16.90;99.90;;;;;;5020831;28;20064;-71
2023/07/25 09:11:25;;;;;;;4.78;2.47;;;17.10;99.90;;;;;;5018847;28;20049;-72
2023/07/25 09:13:51;;;;;;;6.65;2.53;;;17.20;99.90;;;;;;5013075;28;20034;-73
2023/07/25 09:16:17;;;;;;;6.03;2.78;;;17.50;99.90;;;;;;5022192;28;20040;-72
2023/07/25 09:18:42;;;;;;;5.95;2.88;;;17.80;99.90;;;;;;5017574;28;20069;-72
2023/07/25 09:21:11;;;;;;;4.50;2.38;;;17.90;99.90;;;;;;5015705;28;20046;-70
2023/07/25 09:23:37;;;;;;;4.60;2.70;;;18.00;99.90;;;;;;5009922;28;20056;-69
2023/07/25 09:26:10;;;;;;;5.80;3.33;;;18.10;99.90;;;;;;5020549;28;20095;-70
2023/07/25 09:28:47;;;;;;;5.60;3.03;;;18.50;99.90;;;;;;5022556;28;20479;-71
2023/07/25 09:31:12;;;;;;;8.05;3.25;;;18.60;99.90;;;;;;5024139;28;20080;-71
2023/07/25 09:33:39;;;;;;;6.45;2.90;;;18.70;99.90;;;;;;5020938;28;20042;-71
2023/07/25 09:36:05;;;;;;;6.20;2.85;;;18.90;99.90;;;;;;5009601;28;20038;-72
2023/07/25 09:38:32;;;;;;;7.53;3.05;;;19.00;99.90;;;;;;5008720;28;20470;-70
2023/07/25 09:40:58;;;;;;;8.10;3.38;;;19.00;99.90;;;;;;5022304;28;20112;-68
2023/07/25 09:43:25;;;;;;;5.32;3.22;;;19.10;99.90;;;;;;5021236;28;20029;-73
2023/07/25 09:45:52;;;;;;;5.78;3.40;;;19.40;99.90;;;;;;5007405;28;20037;-69
2023/07/25 09:48:18;;;;;;;4.97;3.42;;;19.30;99.90;;;;;;5015692;28;20026;-71
2023/07/25 09:50:44;;;;;;;7.80;3.20;;;19.40;99.90;;;;;;5014366;28;20112;-71
2023/07/25 09:53:13;;;;;;;5.47;3.70;;;19.40;99.90;;;;;;5018325;28;20125;-65
2023/07/25 09:55:40;;;;;;;4.35;2.80;;;19.30;99.90;;;;;;5024626;28;20032;-70
2023/07/25 09:58:05;;;;;;;5.00;2.78;;;19.10;99.90;;;;;;5022745;28;20088;-68
2023/07/25 10:00:32;;;;;;;5.90;2.40;;;18.80;99.90;;;;;;5023330;28;20041;-69
2023/07/25 10:02:59;;;;;;;7.53;2.88;;;18.60;99.90;;;;;;5024534;28;20030;-70
2023/07/25 10:05:28;;;;;;;5.78;2.90;;;18.50;99.90;;;;;;5008773;28;20129;-70
2023/07/25 10:07:56;;;;;;;7.60;2.88;;;18.40;99.90;;;;;;5015175;28;20113;-71
2023/07/25 10:10:22;;;;;;;6.43;2.85;;;18.20;99.90;;;;;;5008502;28;20055;-71
2023/07/25 10:12:48;;;;;;;9.32;3.65;;;18.00;99.90;;;;;;5016522;28;20526;-70
2023/07/25 10:15:14;;;;;;;7.53;3.08;;;17.80;99.90;;;;;;5014373;28;20125;-71
2023/07/25 10:17:39;;;;;;;8.68;3.38;;;17.70;99.90;;;;;;5013605;28;20081;-71
2023/07/25 10:20:06;;;;;;;7.03;3.50;;;17.60;99.90;;;;;;5016509;28;20073;-69
2023/07/25 10:22:33;;;;;;;5.90;3.15;;;17.70;99.90;;;;;;5015783;28;20537;-70
2023/07/25 10:24:59;;;;;;;8.63;3.35;;;17.60;99.90;;;;;;5009069;28;20046;-69
2023/07/25 10:27:24;;;;;;;10.27;4.00;;;17.50;99.90;;;;;;5025194;28;20137;-70
2023/07/25 10:29:50;;;;;;;6.18;3.33;;;17.40;99.90;;;;;;5002622;28;20061;-68
2023/07/25 10:32:22;;;;;;;6.75;3.50;;;17.40;99.90;;;;;;5009096;28;20087;-70
2023/07/25 10:35:04;;;;;;;10.95;4.28;;;17.50;99.90;;;;;;5008951;28;20038;-70
2023/07/25 10:37:38;;;;;;;5.75;3.50;;;17.80;99.90;;;;;;5019410;28;20030;-70
2023/07/25 10:40:04;;;;;;;4.32;3.08;;;17.80;99.90;;;;;;5008585;28;20124;-70
2023/07/25 10:42:48;;;;;;;8.00;3.88;;;17.90;99.90;;;;;;5011494;28;20037;-69
2023/07/25 10:45:20;;;;;;;11.60;4.95;;;18.10;99.90;;;;;;5017094;28;20041;-67
2023/07/25 10:47:48;;;;;;;8.75;3.97;;;18.60;99.90;;;;;;5013046;28;20057;-71
2023/07/25 10:50:19;;;;;;;5.55;3.47;;;19.00;99.90;;;;;;5024117;28;20045;-66
2023/07/25 10:52:46;;;;;;;6.53;3.38;;;19.20;99.90;;;;;;5014255;28;20030;-71
2023/07/25 10:55:13;;;;;;;6.90;3.60;;;19.50;99.90;;;;;;4999006;28;20363;-67
2023/07/25 10:57:39;;;;;;;6.85;3.30;;;19.80;99.90;;;;;;5024418;28;20087;-72
2023/07/25 11:00:09;;;;;;;7.15;2.97;;;19.80;99.90;;;;;;5022751;28;20034;-69
2023/07/25 11:02:36;;;;;;;4.28;2.50;;;19.70;99.90;;;;;;5011294;28;20040;-69
2023/07/25 11:05:28;;;;;;;4.80;2.58;;;19.60;99.90;;;;;;5019511;28;20034;-68
2023/07/25 11:07:55;;;;;;;4.50;2.20;;;19.70;99.90;;;;;;5012012;28;20401;-70
2023/07/25 11:10:27;;;;;;;5.20;2.00;;;19.90;99.90;;;;;;5018120;28;20044;-68
2023/07/25 11:12:58;;;;;;;5.53;2.22;;;20.20;99.90;;;;;;5027678;28;20039;-68
2023/07/25 11:15:24;;;;;;;4.75;2.08;;;20.30;99.90;;;;;;5019465;28;20022;-69
2023/07/25 11:17:50;;;;;;;4.97;1.85;;;20.10;99.90;;;;;;5020241;28;20087;-69
2023/07/25 11:20:24;;;;;;;6.15;2.10;;;20.40;99.90;;;;;;5007291;28;20088;-66
2023/07/25 11:22:51;;;;;;;3.60;1.95;;;20.30;99.90;;;;;;5008507;28;20029;-69
2023/07/25 11:25:17;;;;;;;2.67;1.65;;;20.20;99.90;;;;;;5012422;28;20038;-68
2023/07/25 11:27:47;;;;;;;4.30;1.98;;;19.90;99.90;;;;;;5020006;28;20041;-68
2023/07/25 11:30:13;;;;;;;5.47;2.42;;;19.70;99.90;;;;;;5014471;28;20190;-65
2023/07/25 11:32:44;;;;;;;4.18;2.00;;;19.60;99.90;;;;;;5018132;28;20087;-68
2023/07/25 11:35:10;;;;;;;4.18;1.65;;;19.90;99.90;;;;;;5026926;28;20030;-69
2023/07/25 11:37:36;;;;;;;4.28;1.95;;;20.30;99.90;;;;;;5025095;28;20179;-68
2023/07/25 11:40:18;;;;;;;3.95;1.75;;;20.50;99.90;;;;;;5029044;28;20048;-69
2023/07/25 11:42:46;;;;;;;3.58;1.80;;;20.40;99.90;;;;;;5012765;28;20032;-70
2023/07/25 11:45:13;;;;;;;4.38;2.10;;;20.30;99.90;;;;;;5019865;28;20034;-67
2023/07/25 11:47:41;;;;;;;3.72;1.80;;;20.20;99.90;;;;;;5013501;28;20033;-70
2023/07/25 11:50:09;;;;;;;6.63;2.05;;;20.50;99.90;;;;;;4998552;28;20382;-69
2023/07/25 11:52:36;;;;;;;2.50;1.60;;;20.80;99.90;;;;;;5010593;28;20026;-69
2023/07/25 11:55:02;;;;;;;5.80;1.98;;;21.20;99.90;;;;;;5024444;28;20095;-70
2023/07/25 11:57:28;;;;;;;4.00;1.60;;;21.50;99.90;;;;;;5029826;28;20033;-69
2023/07/25 11:59:55;;;;;;;4.18;1.42;;;20.80;99.90;;;;;;5023829;28;20030;-68
2023/07/25 12:02:24;;;;;;;6.13;1.63;;;20.10;99.90;;;;;;5023943;28;20405;-69
2023/07/25 12:04:50;;;;;;;2.80;1.60;;;19.90;99.90;;;;;;5011434;28;20037;-69
2023/07/25 12:07:16;;;;;;;2.65;1.52;;;19.90;99.90;;;;;;5011024;28;20030;-68
2023/07/25 12:09:50;;;;;;;5.40;1.63;;;20.20;99.90;;;;;;5017426;28;20539;-69
2023/07/25 12:12:16;;;;;;;4.13;1.63;;;20.10;99.90;;;;;;5018017;28;20029;-65
2023/07/25 12:14:53;;;;;;;4.78;1.80;;;20.00;99.90;;;;;;5011749;28;20034;-69
2023/07/25 12:17:19;;;;;;;6.20;1.95;;;20.00;99.90;;;;;;5024791;28;20092;-68
2023/07/25 12:19:53;;;;;;;3.13;1.45;;;20.10;99.90;;;;;;5029188;28;20037;-70
2023/07/25 12:22:19;;;;;;;4.07;1.70;;;20.30;99.90;;;;;;5015421;28;20065;-66
2023/07/25 12:24:45;;;;;;;3.83;1.42;;;20.50;99.90;;;;;;5026613;28;20036;-68
2023/07/25 12:27:18;;;;;;;6.78;0.93;;;20.40;99.90;;;;;;5015982;28;20029;-67
2023/07/25 12:29:44;;;;;;;1.98;0.90;;;20.50;99.90;;;;;;5028647;28;20562;-70
2023/07/25 12:32:11;;;;;;;2.17;0.93;;;20.70;99.90;;;;;;5030176;28;20053;-70
2023/07/25 12:34:36;;;;;;;3.03;0.95;;;21.00;99.90;;;;;;5013100;28;20117;-70
2023/07/25 12:37:02;;;;;;;2.38;1.25;;;21.20;99.90;;;;;;5027759;28;21791;-68
2023/07/25 12:39:29;;;;;;;1.80;0.90;;;21.30;99.90;;;;;;5021671;28;20430;-70
2023/07/25 12:41:55;;;;;;;4.43;1.00;;;21.40;99.90;;;;;;5012623;28;20116;-70